createdAt,value
2019-02-06T00:00:00.000Z,0.9
2019-02-06T00:05:00.000Z,0.9
2019-02-06T00:10:00.000Z,0.8
2019-02-06T00:15:00.000Z,0.8
2019-02-06T00:20:00.000Z,0.8
2019-02-06T00:25:00.000Z,0.8
2019-02-06T00:30:00.000Z,0.8
2019-02-06T00:35:00.000Z,0.7
2019-02-06T00:40:00.000Z,0.7
2019-02-06T00:45:00.000Z,0.7
2019-02-06T00:50:00.000Z,0.7
2019-02-06T00:55:00.000Z,0.7
2019-02-06T01:00:00.000Z,0.6
2019-02-06T01:05:00.000Z,0.6
2019-02-06T01:10:00.000Z,0.6
2019-02-06T01:15:00.000Z,0.5
2019-02-06T01:20:00.000Z,0.4
2019-02-06T01:25:00.000Z,0.4
2019-02-06T01:30:00.000Z,0.3
2019-02-06T01:35:00.000Z,0.3
2019-02-06T01:40:00.000Z,0.2
2019-02-06T01:45:00.000Z,0.2
2019-02-06T01:50:00.000Z,0.2
2019-02-06T01:55:00.000Z,0.2
2019-02-06T02:00:00.000Z,0.1
2019-02-06T02:05:00.000Z,0.1
2019-02-06T02:11:00.000Z,-0.0
2019-02-06T02:16:00.000Z,-0.1
2019-02-06T02:21:00.000Z,-0.1
2019-02-06T02:26:00.000Z,-0.1
2019-02-06T02:31:00.000Z,-0.2
2019-02-06T02:36:00.000Z,-0.2
2019-02-06T02:41:00.000Z,-0.3
2019-02-06T02:46:00.000Z,-0.3
2019-02-06T02:51:00.000Z,-0.3
2019-02-06T02:56:00.000Z,-0.4
2019-02-06T03:01:00.000Z,-0.5
2019-02-06T03:06:00.000Z,-0.5
2019-02-06T03:11:00.000Z,-0.6
2019-02-06T03:16:00.000Z,-0.6
2019-02-06T03:21:00.000Z,-0.6
2019-02-06T03:26:00.000Z,-0.6
2019-02-06T03:31:00.000Z,-0.7
2019-02-06T03:36:00.000Z,-0.6
2019-02-06T03:41:00.000Z,-0.6
2019-02-06T03:46:00.000Z,-0.6
2019-02-06T03:51:00.000Z,-0.6
2019-02-06T03:56:00.000Z,-0.6
2019-02-06T04:01:00.000Z,-0.7
2019-02-06T04:06:00.000Z,-0.6
2019-02-06T04:12:00.000Z,-0.6
2019-02-06T04:17:00.000Z,-0.5
2019-02-06T04:22:00.000Z,-0.3
2019-02-06T04:27:00.000Z,-0.2
2019-02-06T04:32:00.000Z,-0.1
2019-02-06T04:37:00.000Z,-0.1
2019-02-06T04:42:00.000Z,-0.1
2019-02-06T04:47:00.000Z,-0.2
2019-02-06T04:52:00.000Z,-0.2
2019-02-06T04:57:00.000Z,-0.3
2019-02-06T05:02:00.000Z,-0.4
2019-02-06T05:07:00.000Z,-0.5
2019-02-06T05:12:00.000Z,-0.6
2019-02-06T05:17:00.000Z,-0.7
2019-02-06T05:22:00.000Z,-0.8
2019-02-06T05:27:00.000Z,-0.9
2019-02-06T05:32:00.000Z,-0.9
2019-02-06T05:37:00.000Z,-0.9
2019-02-06T05:42:00.000Z,-0.9
2019-02-06T05:47:00.000Z,-1.0
2019-02-06T05:52:00.000Z,-1.0
2019-02-06T05:57:00.000Z,-1.1
2019-02-06T06:02:00.000Z,-1.0
2019-02-06T06:07:00.000Z,-1.0
2019-02-06T06:12:00.000Z,-1.0
2019-02-06T06:17:00.000Z,-1.0
2019-02-06T06:22:00.000Z,-1.0
2019-02-06T06:27:00.000Z,-1.0
2019-02-06T06:32:00.000Z,-0.9
2019-02-06T06:37:00.000Z,-0.8
2019-02-06T06:43:00.000Z,-0.7
2019-02-06T06:48:00.000Z,-0.6
2019-02-06T06:53:00.000Z,-0.5
2019-02-06T06:58:00.000Z,-0.3
2019-02-06T07:03:00.000Z,-0.2
2019-02-06T07:08:00.000Z,-0.2
2019-02-06T07:13:00.000Z,-0.2
2019-02-06T07:18:00.000Z,-0.1
2019-02-06T07:23:00.000Z,-0.1
2019-02-06T07:28:00.000Z,0.0
2019-02-06T07:33:00.000Z,0.2
2019-02-06T07:38:00.000Z,0.3
2019-02-06T07:43:00.000Z,0.4
2019-02-06T07:48:00.000Z,0.5
2019-02-06T07:53:00.000Z,0.6
2019-02-06T07:58:00.000Z,0.7
2019-02-06T08:03:00.000Z,0.6
2019-02-06T08:08:00.000Z,0.8
2019-02-06T08:13:00.000Z,0.9
2019-02-06T08:18:00.000Z,1.1
2019-02-06T08:23:00.000Z,1.1
2019-02-06T08:28:00.000Z,1.2
2019-02-06T08:33:00.000Z,1.2
2019-02-06T08:38:00.000Z,1.3
2019-02-06T08:43:00.000Z,1.3
2019-02-06T08:48:00.000Z,1.5
2019-02-06T08:53:00.000Z,1.6
2019-02-06T08:58:00.000Z,1.7
2019-02-06T09:03:00.000Z,1.7
2019-02-06T09:08:00.000Z,1.9
2019-02-06T09:14:00.000Z,2.1
2019-02-06T09:19:00.000Z,2.3
2019-02-06T09:24:00.000Z,2.3
2019-02-06T09:29:00.000Z,2.4
2019-02-06T09:34:00.000Z,2.4
2019-02-06T09:39:00.000Z,2.5
2019-02-06T09:44:00.000Z,2.7
2019-02-06T09:49:00.000Z,2.9
2019-02-06T09:54:00.000Z,2.9
2019-02-06T09:59:00.000Z,3.0
2019-02-06T10:04:00.000Z,3.0
2019-02-06T10:09:00.000Z,3.2
2019-02-06T10:14:00.000Z,3.2
2019-02-06T10:19:00.000Z,3.3
2019-02-06T10:24:00.000Z,3.4
2019-02-06T10:29:00.000Z,3.4
2019-02-06T10:34:00.000Z,3.4
2019-02-06T10:39:00.000Z,3.5
2019-02-06T10:44:00.000Z,3.6
2019-02-06T10:49:00.000Z,3.5
2019-02-06T10:54:00.000Z,3.7
2019-02-06T10:59:00.000Z,3.9
2019-02-06T11:04:00.000Z,4.0
2019-02-06T11:09:00.000Z,4.1
2019-02-06T11:14:00.000Z,4.3
2019-02-06T11:19:00.000Z,4.5
2019-02-06T11:24:00.000Z,4.5
2019-02-06T11:29:00.000Z,4.6
2019-02-06T11:34:00.000Z,4.8
2019-02-06T11:39:00.000Z,5.2
2019-02-06T11:44:00.000Z,5.2
2019-02-06T11:49:00.000Z,5.3
2019-02-06T11:55:00.000Z,5.2
2019-02-06T12:00:00.000Z,5.2
2019-02-06T12:05:00.000Z,5.4
2019-02-06T12:10:00.000Z,5.6
2019-02-06T12:15:00.000Z,5.7
2019-02-06T12:20:00.000Z,5.9
2019-02-06T12:25:00.000Z,5.8
2019-02-06T12:30:00.000Z,5.6
2019-02-06T12:35:00.000Z,5.5
2019-02-06T12:40:00.000Z,5.5
2019-02-06T12:45:00.000Z,5.5
2019-02-06T12:50:00.000Z,5.6
2019-02-06T12:55:00.000Z,5.5
2019-02-06T13:00:00.000Z,5.5
2019-02-06T13:05:00.000Z,5.3
2019-02-06T13:10:00.000Z,5.2
2019-02-06T13:15:00.000Z,5.3
2019-02-06T13:20:00.000Z,5.1
2019-02-06T13:25:00.000Z,5.1
2019-02-06T13:30:00.000Z,5.0
2019-02-06T13:35:00.000Z,5.1
2019-02-06T13:40:00.000Z,5.1
2019-02-06T13:45:00.000Z,5.2
2019-02-06T13:50:00.000Z,5.2
2019-02-06T13:55:00.000Z,5.0
2019-02-06T14:00:00.000Z,4.9
2019-02-06T14:05:00.000Z,4.9
2019-02-06T14:10:00.000Z,4.9
2019-02-06T14:16:00.000Z,4.8
2019-02-06T14:21:00.000Z,4.7
2019-02-06T14:26:00.000Z,4.5
2019-02-06T14:31:00.000Z,4.4
2019-02-06T14:36:00.000Z,4.4
2019-02-06T14:41:00.000Z,4.2
2019-02-06T14:46:00.000Z,4.1
2019-02-06T14:51:00.000Z,4.0
2019-02-06T14:56:00.000Z,3.9
2019-02-06T15:01:00.000Z,3.8
2019-02-06T15:06:00.000Z,3.7
2019-02-06T15:11:00.000Z,3.6
2019-02-06T15:16:00.000Z,3.6
2019-02-06T15:21:00.000Z,3.5
2019-02-06T15:26:00.000Z,3.4
2019-02-06T15:31:00.000Z,3.2
2019-02-06T15:36:00.000Z,3.1
2019-02-06T15:41:00.000Z,3.0
2019-02-06T15:46:00.000Z,2.9
2019-02-06T15:51:00.000Z,2.7
2019-02-06T15:56:00.000Z,2.7
2019-02-06T16:01:00.000Z,2.6
2019-02-06T16:06:00.000Z,2.7
2019-02-06T16:11:00.000Z,2.6
2019-02-06T16:16:00.000Z,2.6
2019-02-06T16:21:00.000Z,2.5
2019-02-06T16:26:00.000Z,2.5
2019-02-06T16:31:00.000Z,2.4
2019-02-06T16:36:00.000Z,2.4
2019-02-06T16:41:00.000Z,2.4
2019-02-06T16:46:00.000Z,2.4
2019-02-06T16:51:00.000Z,2.4
2019-02-06T16:56:00.000Z,2.4
2019-02-06T17:02:00.000Z,2.4
2019-02-06T17:07:00.000Z,2.5
2019-02-06T17:12:00.000Z,2.5
2019-02-06T17:17:00.000Z,2.6
2019-02-06T17:22:00.000Z,2.6
2019-02-06T17:27:00.000Z,2.6
2019-02-06T17:32:00.000Z,2.6
2019-02-06T17:37:00.000Z,2.5
2019-02-06T17:42:00.000Z,2.5
2019-02-06T17:47:00.000Z,2.4
2019-02-06T17:52:00.000Z,2.4
2019-02-06T17:57:00.000Z,2.5
2019-02-06T18:02:00.000Z,2.5
2019-02-06T18:07:00.000Z,2.5
2019-02-06T18:12:00.000Z,2.4
2019-02-06T18:17:00.000Z,2.5
2019-02-06T18:22:00.000Z,2.4
2019-02-06T18:27:00.000Z,2.3
2019-02-06T18:32:00.000Z,2.4
2019-02-06T18:37:00.000Z,2.3
2019-02-06T18:42:00.000Z,2.2
2019-02-06T18:47:00.000Z,2.1
2019-02-06T18:52:00.000Z,2.1
2019-02-06T18:57:00.000Z,2.1
2019-02-06T19:02:00.000Z,2.1
2019-02-06T19:07:00.000Z,2.1
2019-02-06T19:12:00.000Z,2.2
2019-02-06T19:17:00.000Z,2.3
2019-02-06T19:22:00.000Z,2.3
2019-02-06T19:27:00.000Z,2.3
2019-02-06T19:32:00.000Z,2.3
2019-02-06T19:37:00.000Z,2.2
2019-02-06T19:42:00.000Z,2.1
2019-02-06T19:48:00.000Z,2.0
2019-02-06T19:53:00.000Z,2.0
2019-02-06T19:58:00.000Z,2.0
2019-02-06T20:03:00.000Z,1.9
2019-02-06T20:08:00.000Z,1.9
2019-02-06T20:13:00.000Z,1.8
2019-02-06T20:18:00.000Z,1.7
2019-02-06T20:23:00.000Z,1.7
2019-02-06T20:28:00.000Z,1.7
2019-02-06T20:33:00.000Z,1.6
2019-02-06T20:38:00.000Z,1.5
2019-02-06T20:43:00.000Z,1.5
2019-02-06T20:48:00.000Z,1.5
2019-02-06T20:53:00.000Z,1.5
2019-02-06T20:58:00.000Z,1.5
2019-02-06T21:03:00.000Z,1.5
2019-02-06T21:08:00.000Z,1.6
2019-02-06T21:13:00.000Z,1.6
2019-02-06T21:18:00.000Z,1.6
2019-02-06T21:23:00.000Z,1.6
2019-02-06T21:28:00.000Z,1.7
2019-02-06T21:33:00.000Z,1.6
2019-02-06T21:38:00.000Z,1.5
2019-02-06T21:43:00.000Z,1.5
2019-02-06T21:48:00.000Z,1.4
2019-02-06T21:53:00.000Z,1.4
2019-02-06T21:58:00.000Z,1.4
2019-02-06T22:03:00.000Z,1.3
2019-02-06T22:08:00.000Z,1.2
2019-02-06T22:13:00.000Z,1.1
2019-02-06T22:18:00.000Z,1.0
2019-02-06T22:23:00.000Z,0.9
2019-02-06T22:28:00.000Z,0.8
2019-02-06T22:33:00.000Z,0.7
2019-02-06T22:38:00.000Z,0.7
2019-02-06T22:43:00.000Z,0.6
2019-02-06T22:49:00.000Z,0.6
2019-02-06T22:54:00.000Z,0.7
2019-02-06T22:59:00.000Z,0.7
2019-02-06T23:04:00.000Z,0.8
2019-02-06T23:09:00.000Z,0.8
2019-02-06T23:14:00.000Z,0.8
2019-02-06T23:19:00.000Z,0.8
2019-02-06T23:24:00.000Z,0.8
2019-02-06T23:29:00.000Z,0.8
2019-02-06T23:34:00.000Z,0.8
2019-02-06T23:39:00.000Z,0.8
2019-02-06T23:44:00.000Z,0.8
2019-02-06T23:49:00.000Z,0.7
2019-02-06T23:54:00.000Z,0.6
2019-02-06T23:59:00.000Z,0.5
